Axtell, Utah
Current Conditions -  °F | °C
As of 7:15 AM on Sunday 25 Jan 2015 (Local Time) from KDTA Reporting Station
Clear Clear  
Wind Chill: -3°   Ceiling: Unl
Heat Index:   Visibility: 10mi
Dew Point: -3°   Wind: 5mph
Humidity: 79%   Direction: 350°N
Pressure: 30.44"   Gusts: NA
Location:  39.06°N, 111.82°W
Report Text: KDTA 251415Z AUTO 35004KT 10SM CLR 00/M03 A3044 RMK AO1 T10011034
Loading
Personal Weather Stations






























Interactive Weather Map New forecast layout! Learn more

10-Day Weather Forecast

Advertisements
Track Severe Weather on mobile